AirNav   TITAN Aviation Fuels
 
 1448 users online  

CT96 Green Acres Airport
Bristol, Connecticut, USA

GOING TO BRISTOL?


FAA INFORMATION EFFECTIVE 01 DECEMBER 2022

Location

FAA Identifier: CT96
Lat/Long: 41-42-30.3530N 072-58-16.3750W
41-42.505883N 072-58.272917W
41.7084314,-72.9712153
(estimated)
Elevation: 950 ft. / 290 m (estimated)
Variation: 14W (1985)
From city: 4 miles N of BRISTOL, CT
Time zone: UTC -5 (UTC -4 during Daylight Saving Time)
Zip code: 06010

Airport Operations

Airport use: Private use. Permission required prior to landing
Activation date: 04/1987
Control tower: no
ARTCC: BOSTON CENTER
FSS: BRIDGEPORT FLIGHT SERVICE STATION
Attendance: UNATNDD
Wind indicator: lighted
Segmented circle: no
Lights: FOR LIRL CALL 203-582-2500.

Airport Communications

WX AWOS-AV at CT71 (8 nm E): 129.825
WX ASOS at MMK (14 nm SE): 134.925 (203-639-9405)
WX ASOS at HFD (15 nm E): PHONE 860-527-5837
WX AWOS-3PT at OXC (16 nm SW): 132.975 (203-262-1190)
WX ASOS at BDL (19 nm NE): 118.15 (860-386-3480)

Nearby radio navigation aids

VOR radial/distance  VOR name  Freq  Var
HFDr295/19.4HARTFORD VOR/DME114.9013W
MADr345/26.8MADISON VOR/DME110.4013W
PWLr109/28.4PAWLING VOR/DME114.3012W
BAFr217/29.5BARNES VORTAC113.0014W
BDRr024/33.6BRIDGEPORT VOR/DME108.8012W
CTRr195/35.0CHESTER VOR/DME115.1013W
CMKr059/37.6CARMEL VOR/DME116.6012W
IGNr098/38.2KINGSTON VOR/DME117.6012W

Airport Services

Runway Information

Runway 16/34

Dimensions: 1800 x 24 ft. / 549 x 7 m
Surface: asphalt
Runway edge lights: low intensity
RUNWAY 16  RUNWAY 34
Traffic pattern: leftleft

Airport Ownership and Management from official FAA records

Ownership: Privately-owned
Owner: WALLACE BARNES
1875 PERKINS ST
BRISTOL, CT 06010
Phone (860) 582-2500
Manager: WALLACE BARNES
1875 PERKINS ST
BRISTOL, CT 06010
Phone (860) 582-2500

Airport Operational Statistics

Aircraft based on the field: 1
Multi engine airplanes: 1
    

Additional Remarks

FOR CD CTC YANKEE APCH AT 860-386-3597.

Instrument Procedures

There are no published instrument procedures at CT96.

Some nearby airports with instrument procedures:

4B8 - Robertson Field Airport (5 nm E)
KMMK - Meriden Markham Municipal Airport (14 nm SE)
KHFD - Hartford-Brainard Airport (15 nm E)
KOXC - Waterbury-Oxford Airport (16 nm SW)
KBDL - Bradley International Airport (19 nm NE)
 
Loc | Ops | Rwys | IFR | FBO | Links
Com | Nav | Svcs | Stats | Notes

Silver City Flying Club
 
Area around CT96 (Green Acres Airport)
 
Road maps at: MapQuest Bing Google
 
Aerial photo
No photo
 
Sectional chart

 
Airport distance calculator
Flying to Green Acres Airport? Find the distance to fly.

From to CT96

Sunrise and sunset
Times for 08-Dec-2022
 Local
(UTC-5)
 Zulu
(UTC)
Morning civil twilight06:3611:36
Sunrise07:0712:07
Sunset16:2021:20
Evening civil twilight16:5221:52

Current date and time
Zulu (UTC)  08-Dec-2022 15:26:31
Local (UTC-5)  08-Dec-2022 10:26:31
 
METAR
KMMK 
13nm SE 
081453Z AUTO 36010KT 10SM CLR 10/02 A3022 RMK AO2 SLP234 T01000017 53009
KHFD 
14nm E 
081453Z 32007KT 10SM OVC040 10/02 A3022 RMK AO2 SLP232 T01000022 51013
KOXC 
16nm SW 
081451Z 33014G21KT 10SM FEW025 08/02 A3022 RMK AO2 SLP248 T00830022 50014
KBDL 
19nm NE 
081451Z 34008KT 10SM FEW025 BKN036 BKN250 09/02 A3021 RMK AO2 SLP231 T00940022 51012
TAF
KBDL 
19nm NE 
081120Z 0812/0918 34007KT P6SM FEW200 FM081700 33011G20KT P6SM FEW250 FM082200 34008KT P6SM FEW250
NOTAMs
Click for the latest NOTAMs
NOTAMs are issued by the DoD/FAA and will open in a separate window not controlled by AirNav.

 

 
 

Would you like to see your business listed on this page?

 If your business provides an interesting product or service to pilots, flight crews, aircraft, or users of the Green Acres Airport, you should consider listing it here.  To start the listing process, click on the button below
 
Add a business
 

Other Pages about Green Acres Airport

Update a link
 
Copyright © AirNav, LLC. All rights reserved. Privacy Policy  Contact